AirNav   Pilot Hours Calculator
 
 1079 users online  

PN61 Chero'Kee Furko Heliport
Plum, Pennsylvania, USA

GOING TO PLUM?


FAA INFORMATION EFFECTIVE 07 NOVEMBER 2019

Location

FAA Identifier: PN61
Lat/Long: 40-31-33.4200N 079-49-07.2600W
40-31.557000N 079-49.121000W
40.5259500,-79.8186833
(estimated)
Elevation: 950 ft. / 290 m (estimated)
From city: 1 mile SW of PLUM, PA
Time zone: UTC -5 (UTC -4 during Daylight Saving Time)
Zip code: 15147

Heliport Operations

Heliport use: Private use. Permission required prior to landing
Activation date: 04/2003
Control tower: no
ARTCC: CLEVELAND CENTER
FSS: ALTOONA FLIGHT SERVICE STATION
Attendance: UNATNDD
Segmented circle: no

Heliport Communications

WX AWOS-A at 42PN (9 nm SW): PHONE 412-442-2213
WX ASOS at AGC (11 nm SW): PHONE 412-466-8968
WX AWOS-3PT at BTP (16 nm N): 121.450 (724-586-6434)
WX AWOS-3 at FWQ (19 nm S): 118.475 (724-379-5815)
WX ASOS at PIT (19 nm W): PHONE 412-472-0145

Nearby radio navigation aids

VOR radial/distance  VOR name  Freq  Var
AGCr043/18.0ALLEGHENY VOR/DME110.0009W
EWCr143/25.3ELLWOOD CITY VOR/DME115.8008W
HLGr072/37.8WHEELING VOR/DME112.2007W
IHDr334/39.2INDIAN HEAD VORTAC108.2006W

Heliport Services

Runway Information

Helipad H1

Dimensions: 100 x 100 ft. / 30 x 30 m
Surface: turf
Traffic pattern: leftleft

Heliport Ownership and Management from official FAA records

Ownership: Privately-owned
Owner: KEN E. WALKER
R.D. #2 BRICK CHURCH
FORD CITY, PA 16226
Phone 412-893-1495
Manager: CHEROKEE WALKER
R.D. #2 BRICK CHURCH
FORD CITY, PA 16226
Phone 412-845-9132

Heliport Operational Statistics

Aircraft based on the field: 1
Helicopters: 1
    

Additional Remarks

FOR CD CTC PITTSBURGH APCH AT 412-472-5591

Instrument Procedures

There are no published instrument procedures at PN61.

Some nearby airports with instrument procedures:

KAGC - Allegheny County Airport (11 nm SW)
6P7 - McVille Airport (16 nm NE)
KBTP - Pittsburgh/Butler Regional Airport (16 nm N)
G05 - Finleyville Airpark (19 nm SW)
KFWQ - Rostraver Airport (19 nm S)
KPIT - Pittsburgh International Airport (19 nm W)
 
Loc | Ops | Rwys | IFR | FBO | Links
Com | Nav | Svcs | Stats | Notes
Area around PN61 (Chero'Kee Furko Heliport)
 
Road maps at: MapQuest Bing Google
 
Aerial photo
No photo
 
Sectional chart

 
Airport distance calculator
Flying to Chero'Kee Furko Heliport? Find the distance to fly.

From to PN61

Sunrise and sunset
Times for 17-Nov-2019
 Local
(UTC-5)
 Zulu
(UTC)
Morning civil twilight06:4011:40
Sunrise07:0912:09
Sunset17:0022:00
Evening civil twilight17:2922:29

Current date and time
Zulu (UTC)  18-Nov-2019 01:54:25
Local (UTC-5)  17-Nov-2019 20:54:25
 
METAR
KAGC 
11nm SW 
180053Z 11005KT 10SM CLR 02/M02 A2995 RMK AO2 SLP159 T00221017
KBTP 
16nm N 
180056Z AUTO 08007KT 10SM CLR 01/M02 A2997 RMK AO2 SLP169 T00111022 FZRANO
KP53 
19nm S 
180056Z AUTO 19004KT 03/01 A2981 RMK AO1 SLP102 T00280011
KPIT 
20nm W 
180051Z 09005KT 10SM OVC250 03/M02 A2995 RMK AO2 SLP161 T00281022
KPJC 
23nm NW 
180135Z AUTO 10004KT 10SM CLR 02/M02 A2996 RMK AO2
TAF
KAGC 
11nm SW 
171729Z 1718/1818 12007KT P6SM SKC FM181600 13003KT P6SM BKN100
NOTAMs
Click for the latest NOTAMs
NOTAMs are issued by the DoD/FAA and will open in a separate window not controlled by AirNav.

 

 
 

Would you like to see your business listed on this page?

 If your business provides an interesting product or service to pilots, flight crews, aircraft, or users of the Chero'Kee Furko Heliport, you should consider listing it here.  To start the listing process, click on the button below
 
Add a business
 

Other Pages about Chero'Kee Furko Heliport

Update a link
 
Copyright © AirNav, LLC. All rights reserved. Privacy Policy  Contact